Time;durP1;ratioP1;P1;durP2;ratioP2;P2;SDS_P1;SDS_P2;PMS_P1;PMS_P2;Temp;Humidity;BMP_temperature;BMP_pressure;BME280_temperature;BME280_humidity;BME280_pressure;Samples;Min_cycle;Max_cycle;Signal;HPM_P1;HPM_P2
2023/05/29 00:00:21;;;;;;;4.53;3.90;;;13.40;99.90;;;;;;5117767;28;20530;-53
2023/05/29 00:02:49;;;;;;;6.90;4.60;;;13.40;99.90;;;;;;5117858;28;20490;-55
2023/05/29 00:05:18;;;;;;;5.70;4.10;;;13.30;99.90;;;;;;5117622;28;20459;-53
2023/05/29 00:07:45;;;;;;;6.80;4.57;;;13.30;99.90;;;;;;5117758;28;20477;-55
2023/05/29 00:10:13;;;;;;;5.40;4.43;;;13.30;99.90;;;;;;5118959;28;20538;-55
2023/05/29 00:12:40;;;;;;;4.40;4.00;;;13.20;99.90;;;;;;5118833;28;20434;-54
2023/05/29 00:15:09;;;;;;;4.60;3.73;;;13.20;99.90;;;;;;5118251;28;20510;-51
2023/05/29 00:17:37;;;;;;;4.20;3.33;;;13.10;99.90;;;;;;5118460;28;20550;-54
2023/05/29 00:20:08;;;;;;;6.30;4.33;;;13.20;99.90;;;;;;5118715;28;20790;-55
2023/05/29 00:22:38;;;;;;;4.47;3.97;;;13.10;99.90;;;;;;5117562;28;20445;-54
2023/05/29 00:25:06;;;;;;;7.00;3.83;;;13.00;99.90;;;;;;5116901;28;20459;-55
2023/05/29 00:27:33;;;;;;;5.47;4.70;;;12.90;99.90;;;;;;5116908;28;20462;-56
2023/05/29 00:30:00;;;;;;;9.30;4.77;;;13.00;99.90;;;;;;5117617;28;20463;-51
2023/05/29 00:32:28;;;;;;;6.27;4.53;;;12.90;99.90;;;;;;5117055;28;20455;-54
2023/05/29 00:34:55;;;;;;;8.80;3.93;;;12.80;99.90;;;;;;5117138;28;20786;-52
2023/05/29 00:37:24;;;;;;;7.60;4.60;;;12.80;99.90;;;;;;5117872;28;20459;-51
2023/05/29 00:39:52;;;;;;;8.63;4.60;;;12.70;99.90;;;;;;5118276;28;20463;-53
2023/05/29 00:42:21;;;;;;;4.87;4.20;;;12.70;99.90;;;;;;5118594;28;20491;-53
2023/05/29 00:44:49;;;;;;;5.23;4.73;;;12.70;99.90;;;;;;5117868;28;20456;-55
2023/05/29 00:47:17;;;;;;;5.40;4.83;;;12.60;1.00;;;;;;5118176;28;20464;-53
2023/05/29 00:49:44;;;;;;;5.93;4.60;;;12.60;1.00;;;;;;5117730;28;20463;-55
2023/05/29 00:52:12;;;;;;;6.77;4.60;;;12.60;1.00;;;;;;5118466;28;20752;-56
2023/05/29 00:54:40;;;;;;;8.70;4.50;;;12.60;1.00;;;;;;5118374;28;20795;-53
2023/05/29 00:57:09;;;;;;;7.03;4.83;;;12.50;1.00;;;;;;5117821;28;20884;-53
2023/05/29 00:59:36;;;;;;;5.33;4.60;;;12.40;1.00;;;;;;5117673;28;20470;-54
2023/05/29 01:02:04;;;;;;;4.70;4.17;;;12.40;1.00;;;;;;5116716;28;20581;-55
2023/05/29 01:04:33;;;;;;;7.10;4.63;;;12.40;1.00;;;;;;5118246;28;20550;-55
2023/05/29 01:07:02;;;;;;;8.33;4.70;;;12.30;1.00;;;;;;5117868;28;20482;-54
2023/05/29 01:09:30;;;;;;;6.80;5.27;;;12.30;1.00;;;;;;5117508;28;20832;-49
2023/05/29 01:12:05;;;;;;;7.07;5.10;;;12.20;1.00;;;;;;5118070;28;20463;-54
2023/05/29 01:15:03;;;;;;;13.47;6.10;;;12.20;1.00;;;;;;5117949;28;20823;-55
2023/05/29 01:17:40;;;;;;;9.20;4.67;;;12.20;1.00;;;;;;5117708;28;20749;-54
2023/05/29 01:20:20;;;;;;;7.97;4.80;;;12.10;1.00;;;;;;5117317;28;20499;-54
2023/05/29 01:23:11;;;;;;;8.37;4.63;;;12.10;1.00;;;;;;5117913;28;20876;-55
2023/05/29 01:26:13;;;;;;;6.90;4.93;;;12.10;1.00;;;;;;5117719;28;20463;-55
2023/05/29 01:28:48;;;;;;;10.20;5.10;;;12.10;1.00;;;;;;5110511;28;20468;-54
2023/05/29 01:31:18;;;;;;;5.33;4.80;;;12.00;1.00;;;;;;5117898;28;20553;-55
2023/05/29 01:33:53;;;;;;;7.83;5.40;;;11.90;1.00;;;;;;5118187;28;20448;-52
2023/05/29 01:36:21;;;;;;;6.90;5.00;;;11.90;1.00;;;;;;5117122;28;20552;-53
2023/05/29 01:38:48;;;;;;;5.83;4.60;;;11.80;1.00;;;;;;5117493;28;20460;-53
2023/05/29 01:41:16;;;;;;;6.40;5.33;;;11.70;1.00;;;;;;5117378;28;20469;-56
2023/05/29 01:43:45;;;;;;;6.10;5.40;;;11.70;1.00;;;;;;5117414;28;20534;-56
2023/05/29 01:46:14;;;;;;;7.27;5.37;;;11.70;1.00;;;;;;5117636;28;20970;-55
2023/05/29 01:48:42;;;;;;;8.83;5.70;;;11.60;1.00;;;;;;5117605;28;20815;-56
2023/05/29 01:51:10;;;;;;;7.77;5.60;;;11.60;3.30;;;;;;5117404;28;20463;-55
2023/05/29 01:53:37;;;;;;;8.63;5.57;;;11.40;1.00;;;;;;5107662;28;20507;-55
2023/05/29 01:56:06;;;;;;;8.07;5.97;;;11.40;6.80;;;;;;5099085;28;20492;-57
2023/05/29 01:58:35;;;;;;;11.80;6.07;;;11.30;38.90;;;;;;5117783;28;20466;-56
2023/05/29 02:01:05;;;;;;;15.20;5.70;;;11.30;99.90;;;;;;5116930;28;20526;-55
2023/05/29 02:03:32;;;;;;;9.07;5.47;;;11.30;99.90;;;;;;5117690;28;20464;-55
2023/05/29 02:06:00;;;;;;;8.50;5.33;;;11.30;99.90;;;;;;5117173;28;20430;-56
2023/05/29 02:08:28;;;;;;;7.63;4.80;;;11.30;99.90;;;;;;5117709;28;20899;-55
2023/05/29 02:10:56;;;;;;;13.50;6.50;;;11.30;99.90;;;;;;5117435;28;20558;-56
2023/05/29 02:13:24;;;;;;;9.30;5.00;;;11.20;99.90;;;;;;5117115;28;20520;-57
2023/05/29 02:15:51;;;;;;;13.27;5.77;;;11.10;99.90;;;;;;5117646;28;20910;-56
2023/05/29 02:18:20;;;;;;;8.43;5.43;;;11.00;99.90;;;;;;5117387;28;20824;-56
2023/05/29 02:20:47;;;;;;;11.20;4.77;;;11.00;99.90;;;;;;5116890;28;20434;-52
2023/05/29 02:23:15;;;;;;;5.23;4.50;;;10.90;99.90;;;;;;5120161;28;20537;-55
2023/05/29 02:25:42;;;;;;;11.50;5.83;;;10.90;99.90;;;;;;5121094;28;20571;-56
2023/05/29 02:28:09;;;;;;;16.27;5.93;;;10.80;1.00;;;;;;5121335;28;20904;-55
2023/05/29 02:30:36;;;;;;;10.20;4.80;;;10.70;13.10;;;;;;5120922;28;20463;-57
2023/05/29 02:33:04;;;;;;;13.50;5.17;;;10.70;1.00;;;;;;5120399;28;20463;-55
2023/05/29 02:35:32;;;;;;;16.33;5.10;;;10.70;99.90;;;;;;5120407;28;20487;-57
2023/05/29 02:38:00;;;;;;;8.50;5.90;;;10.70;99.90;;;;;;5120865;28;20547;-56
2023/05/29 02:40:27;;;;;;;14.77;5.77;;;10.60;1.00;;;;;;5120790;28;20434;-56
2023/05/29 02:42:54;;;;;;;10.83;5.20;;;10.50;99.90;;;;;;5120559;28;20465;-55
2023/05/29 02:45:21;;;;;;;12.97;5.37;;;10.50;1.00;;;;;;5120386;28;20455;-55
2023/05/29 02:47:48;;;;;;;20.93;5.10;;;10.50;99.90;;;;;;5120603;28;20980;-56
2023/05/29 02:50:16;;;;;;;9.07;4.80;;;10.40;1.00;;;;;;5120832;28;20463;-55
2023/05/29 02:52:44;;;;;;;10.03;4.70;;;10.40;1.00;;;;;;5120113;28;20896;-54
2023/05/29 02:55:11;;;;;;;10.20;5.30;;;10.30;1.00;;;;;;5120706;28;20461;-55
2023/05/29 02:57:38;;;;;;;13.60;5.60;;;10.30;1.00;;;;;;5120257;28;20867;-54
2023/05/29 03:00:07;;;;;;;11.20;5.20;;;10.30;99.90;;;;;;5120321;28;20460;-54
2023/05/29 03:02:35;;;;;;;8.90;4.87;;;10.20;1.00;;;;;;5120048;28;20483;-53
2023/05/29 03:05:03;;;;;;;15.10;4.80;;;10.20;46.40;;;;;;5120305;28;20459;-55
2023/05/29 03:07:30;;;;;;;16.40;6.13;;;10.20;1.00;;;;;;5119796;28;20509;-55
2023/05/29 03:09:58;;;;;;;15.60;6.50;;;10.20;1.00;;;;;;5120355;28;20939;-56
2023/05/29 03:12:27;;;;;;;14.07;5.50;;;10.20;99.90;;;;;;5119977;28;20557;-53
2023/05/29 03:14:56;;;;;;;12.23;4.97;;;10.20;1.00;;;;;;5119832;28;20871;-56
2023/05/29 03:17:23;;;;;;;11.93;7.07;;;10.10;1.00;;;;;;5120129;28;20787;-57
2023/05/29 03:19:51;;;;;;;11.83;5.47;;;10.10;99.90;;;;;;5120001;28;20554;-55
2023/05/29 03:22:18;;;;;;;11.20;4.13;;;10.10;99.90;;;;;;5120094;28;20460;-56
2023/05/29 03:24:46;;;;;;;9.30;4.37;;;10.00;1.00;;;;;;5119331;28;20462;-56
2023/05/29 03:27:14;;;;;;;8.87;4.90;;;10.00;1.00;;;;;;5119811;28;20456;-54
2023/05/29 03:29:41;;;;;;;11.30;4.73;;;10.00;99.90;;;;;;5120036;28;20898;-55
2023/05/29 03:32:08;;;;;;;8.97;4.77;;;9.90;1.00;;;;;;5119697;28;20643;-57
2023/05/29 03:34:36;;;;;;;9.37;4.37;;;9.90;1.00;;;;;;5119632;28;20554;-55
2023/05/29 03:37:03;;;;;;;12.87;5.20;;;9.90;99.90;;;;;;5119255;28;20959;-54
2023/05/29 03:39:30;;;;;;;16.00;5.23;;;9.90;99.90;;;;;;5119286;28;20445;-52
2023/05/29 03:41:57;;;;;;;8.80;5.40;;;9.90;99.90;;;;;;5119615;28;20521;-54
2023/05/29 03:44:26;;;;;;;9.13;5.03;;;9.90;99.90;;;;;;5119420;28;20441;-53
2023/05/29 03:46:53;;;;;;;15.93;5.60;;;9.90;99.90;;;;;;5119201;28;20550;-56
2023/05/29 03:49:20;;;;;;;16.10;5.77;;;9.90;1.00;;;;;;5119519;28;20439;-55
2023/05/29 03:51:47;;;;;;;9.77;4.53;;;9.80;99.90;;;;;;5119410;28;20459;-54
2023/05/29 03:54:14;;;;;;;10.77;4.30;;;9.80;1.00;;;;;;5119135;28;20554;-56
2023/05/29 03:56:42;;;;;;;11.70;4.53;;;9.80;99.90;;;;;;5119318;28;20480;-56
2023/05/29 03:59:09;;;;;;;12.00;4.77;;;9.80;1.00;;;;;;5119098;28;20758;-55
2023/05/29 04:01:38;;;;;;;11.23;4.80;;;9.80;99.90;;;;;;5118902;28;21015;-57
2023/05/29 04:04:05;;;;;;;16.23;6.13;;;9.80;99.90;;;;;;5119164;28;20844;-56
2023/05/29 04:06:32;;;;;;;17.53;5.40;;;9.80;99.90;;;;;;5119008;28;20434;-57
2023/05/29 04:08:59;;;;;;;9.10;4.60;;;9.80;1.00;;;;;;5118907;28;20892;-57
2023/05/29 04:11:27;;;;;;;10.63;4.70;;;9.80;99.90;;;;;;5118931;28;20784;-55
2023/05/29 04:13:54;;;;;;;8.17;4.50;;;9.80;1.00;;;;;;5119130;28;20502;-54
2023/05/29 04:16:21;;;;;;;11.40;5.73;;;9.90;99.90;;;;;;5118759;28;20924;-52
2023/05/29 04:18:50;;;;;;;15.17;5.40;;;9.90;82.90;;;;;;5118132;28;20547;-57
2023/05/29 04:21:17;;;;;;;12.00;5.63;;;9.90;1.00;;;;;;5117949;27;20740;-56
2023/05/29 04:23:44;;;;;;;12.10;4.97;;;9.90;1.00;;;;;;5118003;28;20434;-57
2023/05/29 04:26:12;;;;;;;12.20;6.27;;;9.80;90.20;;;;;;5118535;28;20559;-55
2023/05/29 04:28:40;;;;;;;14.57;5.37;;;9.80;1.00;;;;;;5118576;28;20463;-55
2023/05/29 04:31:07;;;;;;;11.90;4.60;;;9.90;1.00;;;;;;5118575;28;20466;-56
2023/05/29 04:33:36;;;;;;;11.93;4.93;;;9.90;1.00;;;;;;5118857;28;20479;-56
2023/05/29 04:36:08;;;;;;;11.07;5.00;;;10.00;1.00;;;;;;5118392;28;20515;-58
2023/05/29 04:38:36;;;;;;;10.63;4.67;;;10.00;99.90;;;;;;5118477;28;20946;-55
2023/05/29 04:41:04;;;;;;;13.63;5.80;;;10.00;99.90;;;;;;5118055;28;20791;-55
2023/05/29 04:43:31;;;;;;;13.03;5.60;;;10.10;99.90;;;;;;5118153;28;20460;-54
2023/05/29 04:45:59;;;;;;;9.80;4.23;;;10.10;20.20;;;;;;5117433;28;20467;-55
2023/05/29 04:48:27;;;;;;;13.10;6.03;;;10.00;1.00;;;;;;5118352;28;20737;-56
2023/05/29 04:50:54;;;;;;;14.67;4.30;;;10.10;1.00;;;;;;5117964;28;20554;-55
2023/05/29 04:53:23;;;;;;;12.90;4.73;;;10.00;1.00;;;;;;5118274;28;20877;-55
2023/05/29 04:55:50;;;;;;;12.80;4.43;;;10.10;1.00;;;;;;5118050;28;20468;-53
2023/05/29 04:58:17;;;;;;;10.00;4.37;;;10.10;1.00;;;;;;5118461;28;20502;-55
2023/05/29 05:00:45;;;;;;;11.30;4.73;;;10.20;1.00;;;;;;5117518;28;20547;-54
2023/05/29 05:03:16;;;;;;;13.17;4.97;;;10.30;1.00;;;;;;5117916;28;20459;-55
2023/05/29 05:05:45;;;;;;;13.37;5.00;;;10.30;1.00;;;;;;5117915;28;20455;-54
2023/05/29 05:08:12;;;;;;;15.60;6.93;;;10.30;1.00;;;;;;5118025;28;20943;-51
2023/05/29 05:10:41;;;;;;;17.97;5.77;;;10.40;1.00;;;;;;5118117;28;20466;-55
2023/05/29 05:13:08;;;;;;;11.40;5.47;;;10.50;1.00;;;;;;5117721;28;20538;-55
2023/05/29 05:15:35;;;;;;;7.97;4.37;;;10.50;1.00;;;;;;5117300;28;20430;-55
2023/05/29 05:18:02;;;;;;;10.83;4.63;;;10.60;1.00;;;;;;5117976;28;20491;-53
2023/05/29 05:20:29;;;;;;;12.70;4.60;;;10.60;99.90;;;;;;5117841;28;20562;-52
2023/05/29 05:22:56;;;;;;;15.27;5.50;;;10.70;99.90;;;;;;5117380;28;20459;-54
2023/05/29 05:25:24;;;;;;;14.83;5.03;;;10.70;99.90;;;;;;5117559;28;20483;-54
2023/05/29 05:27:52;;;;;;;9.70;4.17;;;10.80;1.00;;;;;;5117614;28;20486;-53
2023/05/29 05:30:20;;;;;;;13.27;5.10;;;11.00;1.00;;;;;;5117478;28;20459;-53
2023/05/29 05:32:47;;;;;;;11.70;4.27;;;11.10;99.90;;;;;;5117483;28;20465;-55
2023/05/29 05:35:15;;;;;;;17.27;5.47;;;11.20;99.90;;;;;;5117777;28;20463;-54
2023/05/29 05:37:42;;;;;;;19.30;5.20;;;11.30;99.90;;;;;;5117883;28;20473;-56
2023/05/29 05:40:10;;;;;;;12.80;4.87;;;11.30;99.90;;;;;;5117444;28;20455;-54
2023/05/29 05:42:37;;;;;;;9.63;4.93;;;11.40;99.90;;;;;;5117696;28;20859;-56
2023/05/29 05:45:07;;;;;;;10.20;4.90;;;11.50;56.20;;;;;;5117357;28;20463;-55
2023/05/29 05:47:35;;;;;;;10.00;4.20;;;11.70;99.90;;;;;;5116983;28;20862;-56
2023/05/29 05:50:02;;;;;;;10.10;4.30;;;11.90;44.20;;;;;;5117614;28;20892;-55
2023/05/29 05:52:31;;;;;;;12.27;4.97;;;12.00;99.90;;;;;;5116891;28;20822;-55
2023/05/29 05:54:58;;;;;;;10.80;4.57;;;12.20;1.00;;;;;;5117091;28;20762;-55
2023/05/29 05:57:25;;;;;;;9.90;4.73;;;12.10;99.90;;;;;;5120813;28;20786;-54
2023/05/29 05:59:52;;;;;;;12.27;4.33;;;12.30;99.90;;;;;;5121630;28;20854;-54
2023/05/29 06:02:21;;;;;;;9.37;4.40;;;12.50;42.60;;;;;;5120658;28;20484;-54
2023/05/29 06:04:48;;;;;;;12.13;6.03;;;12.60;1.00;;;;;;5121284;28;20459;-54
2023/05/29 06:07:15;;;;;;;10.83;4.20;;;12.90;47.90;;;;;;5121325;27;20900;-56
2023/05/29 06:09:43;;;;;;;12.90;4.10;;;13.10;99.90;;;;;;5121232;28;20455;-55
2023/05/29 06:12:10;;;;;;;16.30;5.50;;;13.30;37.60;;;;;;5120818;28;20474;-54
2023/05/29 06:14:37;;;;;;;11.73;5.00;;;13.50;99.90;;;;;;5121469;28;20880;-55
2023/05/29 06:17:05;;;;;;;10.20;5.17;;;13.50;84.10;;;;;;5120267;28;20497;-56
2023/05/29 06:19:33;;;;;;;14.53;4.93;;;13.50;62.40;;;;;;5120935;28;20438;-55
2023/05/29 06:22:00;;;;;;;11.23;4.40;;;13.60;96.60;;;;;;5121052;28;20506;-55
2023/05/29 06:24:28;;;;;;;13.60;5.33;;;13.60;76.80;;;;;;5118582;28;20562;-54
2023/05/29 06:26:55;;;;;;;9.30;4.57;;;13.80;99.90;;;;;;5119411;28;20474;-57
2023/05/29 06:29:22;;;;;;;9.20;4.77;;;14.00;90.50;;;;;;5120491;28;20463;-55
2023/05/29 06:31:49;;;;;;;13.50;5.10;;;14.00;27.30;;;;;;5120784;28;20554;-54
2023/05/29 06:34:16;;;;;;;8.63;4.23;;;14.10;66.20;;;;;;5120560;28;20451;-55
2023/05/29 06:36:45;;;;;;;11.23;4.70;;;13.90;38.40;;;;;;5120757;28;20489;-54
2023/05/29 06:39:12;;;;;;;13.97;5.90;;;14.10;99.90;;;;;;5120357;28;20768;-55
2023/05/29 06:41:39;;;;;;;11.63;4.83;;;14.60;42.30;;;;;;5120180;28;20558;-56
2023/05/29 06:44:06;;;;;;;10.47;6.03;;;14.50;48.90;;;;;;5119690;28;20553;-55
2023/05/29 06:46:34;;;;;;;9.77;5.20;;;14.80;1.00;;;;;;5119709;28;20516;-53
2023/05/29 06:49:01;;;;;;;10.17;5.50;;;15.10;1.00;;;;;;5119453;28;20460;-55
2023/05/29 06:51:28;;;;;;;8.60;4.97;;;15.50;1.00;;;;;;5119761;28;20466;-55
2023/05/29 06:53:57;;;;;;;15.10;6.33;;;15.70;1.00;;;;;;5119390;28;20562;-56
2023/05/29 06:56:25;;;;;;;10.33;4.70;;;15.80;1.00;;;;;;5119173;28;20491;-56
2023/05/29 06:58:52;;;;;;;9.77;5.00;;;15.80;1.00;;;;;;5119699;28;20557;-55
2023/05/29 07:01:19;;;;;;;8.80;5.10;;;16.00;1.00;;;;;;5120259;28;20621;-55
2023/05/29 07:03:48;;;;;;;9.47;4.90;;;16.30;1.00;;;;;;5120128;28;20503;-55
2023/05/29 07:06:15;;;;;;;13.67;5.73;;;16.30;1.00;;;;;;5120057;28;20558;-55
2023/05/29 07:08:42;;;;;;;12.10;4.67;;;16.50;1.00;;;;;;5118084;28;20516;-56
2023/05/29 07:11:11;;;;;;;12.00;5.73;;;16.50;1.00;;;;;;5117184;28;20463;-56
2023/05/29 07:13:38;;;;;;;10.57;4.83;;;16.50;1.00;;;;;;5116646;28;21037;-54
2023/05/29 07:16:06;;;;;;;14.17;4.87;;;16.70;1.00;;;;;;5116879;28;20824;-55
2023/05/29 07:18:33;;;;;;;9.00;4.77;;;16.70;1.00;;;;;;5116748;28;20544;-54
2023/05/29 07:21:01;;;;;;;9.77;4.60;;;16.60;1.00;;;;;;5117221;28;20462;-56
2023/05/29 07:23:28;;;;;;;11.53;4.70;;;16.40;1.00;;;;;;5118238;28;20562;-54
2023/05/29 07:25:56;;;;;;;12.23;5.00;;;16.60;1.00;;;;;;5118321;28;20521;-56
2023/05/29 07:28:24;;;;;;;8.80;4.50;;;16.80;1.00;;;;;;5117580;28;20461;-53
2023/05/29 07:30:51;;;;;;;11.40;5.70;;;17.20;1.00;;;;;;5116777;28;20774;-54
2023/05/29 07:33:19;;;;;;;10.77;5.53;;;17.30;99.90;;;;;;5116464;28;20455;-53
2023/05/29 07:35:46;;;;;;;11.03;4.83;;;17.30;99.90;;;;;;5116566;28;20550;-57
2023/05/29 07:38:13;;;;;;;8.63;5.37;;;17.00;99.90;;;;;;5116849;28;20773;-56
2023/05/29 07:40:40;;;;;;;9.73;4.53;;;17.30;1.00;;;;;;5117176;28;20469;-55
2023/05/29 07:43:07;;;;;;;11.67;5.13;;;17.50;99.90;;;;;;5117134;28;20459;-55
2023/05/29 07:45:36;;;;;;;7.80;4.87;;;17.40;99.90;;;;;;5117312;28;20486;-56
2023/05/29 07:48:03;;;;;;;10.60;4.97;;;17.50;99.90;;;;;;5118588;28;20457;-54
2023/05/29 07:50:30;;;;;;;7.73;4.70;;;17.80;99.90;;;;;;5118292;28;20485;-56
2023/05/29 07:52:57;;;;;;;6.30;3.73;;;18.00;99.90;;;;;;5117078;28;20562;-57
2023/05/29 07:55:24;;;;;;;11.73;5.50;;;18.20;99.90;;;;;;5117845;28;20787;-55
2023/05/29 07:57:52;;;;;;;9.83;5.30;;;18.10;99.90;;;;;;5117115;28;20488;-56
2023/05/29 08:00:20;;;;;;;7.80;4.77;;;17.80;99.90;;;;;;5115897;28;20463;-56
2023/05/29 08:02:48;;;;;;;8.97;5.37;;;17.40;99.90;;;;;;5115744;28;20479;-54
2023/05/29 08:05:16;;;;;;;9.13;4.23;;;18.00;99.90;;;;;;5116327;28;20538;-54
2023/05/29 08:07:43;;;;;;;9.47;5.70;;;18.50;99.90;;;;;;5116813;28;20436;-56
2023/05/29 08:10:11;;;;;;;11.70;5.50;;;19.10;99.90;;;;;;5116510;28;20447;-55
2023/05/29 08:12:38;;;;;;;12.53;4.63;;;18.60;99.90;;;;;;5117591;28;20482;-54
2023/05/29 08:15:06;;;;;;;10.53;5.20;;;19.10;99.90;;;;;;5117892;28;20486;-55
2023/05/29 08:17:33;;;;;;;10.37;5.70;;;19.30;99.90;;;;;;5117654;28;20578;-54
2023/05/29 08:20:05;;;;;;;11.27;5.80;;;19.00;99.90;;;;;;5116836;28;20546;-56
2023/05/29 08:22:33;;;;;;;10.07;5.17;;;19.30;99.90;;;;;;5118754;28;20466;-56
2023/05/29 08:25:01;;;;;;;8.47;5.03;;;19.20;99.90;;;;;;5117633;28;20462;-56
2023/05/29 08:27:28;;;;;;;10.33;5.30;;;18.70;99.90;;;;;;5118512;28;20881;-55
2023/05/29 08:29:55;;;;;;;11.50;4.80;;;18.80;99.90;;;;;;5118099;28;20841;-54
2023/05/29 08:32:22;;;;;;;10.73;4.67;;;19.20;99.90;;;;;;5117416;28;20614;-56
2023/05/29 08:34:50;;;;;;;10.53;5.00;;;19.40;99.90;;;;;;5118108;28;20465;-56
2023/05/29 08:37:19;;;;;;;8.00;4.83;;;19.10;99.90;;;;;;5117853;28;20582;-57
2023/05/29 08:39:46;;;;;;;10.00;4.80;;;18.40;99.90;;;;;;5118464;28;20463;-55
2023/05/29 08:42:18;;;;;;;9.10;5.00;;;18.30;99.90;;;;;;5118483;28;20467;-54
2023/05/29 08:44:48;;;;;;;8.70;4.93;;;18.90;99.90;;;;;;5117070;28;20550;-56
2023/05/29 08:47:20;;;;;;;9.13;4.80;;;19.30;99.90;;;;;;5116727;28;20450;-55
2023/05/29 08:49:53;;;;;;;10.60;5.57;;;19.20;1.00;;;;;;5116126;28;20463;-55
2023/05/29 08:52:25;;;;;;;11.07;5.53;;;19.40;99.90;;;;;;5116578;28;20883;-54
2023/05/29 08:54:53;;;;;;;11.57;5.30;;;19.50;99.90;;;;;;5112832;28;20914;-57
2023/05/29 08:57:21;;;;;;;10.03;5.03;;;19.70;99.90;;;;;;5116155;28;20488;-54
2023/05/29 08:59:52;;;;;;;8.50;5.17;;;20.00;99.90;;;;;;5116850;28;20459;-55
2023/05/29 09:02:19;;;;;;;10.67;5.23;;;20.20;1.00;;;;;;5117450;28;20947;-56
2023/05/29 09:04:48;;;;;;;11.67;6.03;;;20.10;99.90;;;;;;5110768;28;20499;-57
2023/05/29 09:07:16;;;;;;;9.93;5.27;;;19.90;99.90;;;;;;5117570;28;20772;-56
2023/05/29 09:09:45;;;;;;;9.03;5.17;;;19.50;99.90;;;;;;5117760;28;20506;-56
2023/05/29 09:12:12;;;;;;;11.43;5.47;;;20.40;99.90;;;;;;5118181;28;20491;-56
2023/05/29 09:14:42;;;;;;;11.20;5.23;;;20.80;1.00;;;;;;5117343;28;20504;-55
2023/05/29 09:17:10;;;;;;;12.17;6.03;;;20.40;99.90;;;;;;5114374;28;20451;-55
2023/05/29 09:19:40;;;;;;;10.13;5.40;;;20.80;99.90;;;;;;5116824;28;20434;-56
2023/05/29 09:22:09;;;;;;;6.97;5.07;;;20.50;1.00;;;;;;5114205;28;20483;-56
2023/05/29 09:24:38;;;;;;;10.53;5.40;;;20.40;99.90;;;;;;5117480;28;20508;-56
2023/05/29 09:27:08;;;;;;;11.50;5.67;;;20.70;1.00;;;;;;5117648;28;20463;-56
2023/05/29 09:29:39;;;;;;;8.67;4.53;;;21.10;1.00;;;;;;5117621;28;20456;-57
2023/05/29 09:32:08;;;;;;;8.00;4.83;;;21.50;99.90;;;;;;5120374;28;20463;-56
2023/05/29 09:34:39;;;;;;;6.70;4.70;;;21.00;99.90;;;;;;5121800;28;20884;-56
2023/05/29 09:37:08;;;;;;;8.00;5.50;;;20.50;93.80;;;;;;5121381;28;20516;-55
2023/05/29 09:39:47;;;;;;;11.40;6.17;;;20.70;1.00;;;;;;5120833;28;20477;-56
2023/05/29 09:42:15;;;;;;;9.17;5.60;;;20.90;1.00;;;;;;5120794;28;20477;-56
2023/05/29 09:44:43;;;;;;;8.33;4.93;;;21.40;74.90;;;;;;5122880;28;20459;-60
2023/05/29 09:47:14;;;;;;;9.97;5.83;;;21.30;99.90;;;;;;5130809;28;20551;-61
2023/05/29 09:49:43;;;;;;;11.50;6.37;;;21.60;99.90;;;;;;5125034;28;20459;-60
2023/05/29 09:52:14;;;;;;;10.90;6.23;;;20.90;99.90;;;;;;5126752;28;20463;-61
2023/05/29 09:54:45;;;;;;;9.93;4.97;;;21.50;99.90;;;;;;5127162;28;20456;-61
2023/05/29 09:57:16;;;;;;;7.47;5.00;;;21.50;1.00;;;;;;5124942;28;20466;-61
2023/05/29 09:59:46;;;;;;;11.27;5.50;;;21.20;1.00;;;;;;5130207;28;20475;-63
2023/05/29 10:02:15;;;;;;;6.20;5.13;;;21.30;99.90;;;;;;5126768;28;20582;-61
2023/05/29 10:04:43;;;;;;;12.17;5.90;;;21.10;1.00;;;;;;5124505;28;20506;-60
2023/05/29 10:07:16;;;;;;;10.37;5.40;;;21.60;99.90;;;;;;5125394;28;20459;-61
2023/05/29 10:09:48;;;;;;;8.80;5.30;;;21.40;1.00;;;;;;5127722;28;20498;-61
2023/05/29 10:12:21;;;;;;;10.73;5.20;;;21.30;99.90;;;;;;5126291;28;20462;-61
2023/05/29 10:14:50;;;;;;;9.50;5.47;;;22.30;1.00;;;;;;5126051;28;20437;-60
2023/05/29 10:17:24;;;;;;;10.37;6.00;;;22.70;99.90;;;;;;5128604;28;20459;-61
2023/05/29 10:19:53;;;;;;;9.57;5.93;;;23.00;1.00;;;;;;5124839;28;20772;-62
2023/05/29 10:22:24;;;;;;;10.63;4.90;;;22.70;10.70;;;;;;5125009;28;20554;-62
2023/05/29 10:24:53;;;;;;;10.50;4.83;;;22.80;5.20;;;;;;5124330;28;20459;-60
2023/05/29 10:27:22;;;;;;;10.07;5.50;;;23.10;1.00;;;;;;5121572;28;20541;-64
2023/05/29 10:29:54;;;;;;;9.97;5.83;;;21.50;1.00;;;;;;5122290;28;20454;-59
2023/05/29 10:32:28;;;;;;;11.13;5.83;;;21.60;1.00;;;;;;5120133;28;20554;-62
2023/05/29 10:35:07;;;;;;;13.63;5.37;;;21.90;1.00;;;;;;5118693;28;20506;-59
2023/05/29 10:37:40;;;;;;;8.23;5.10;;;22.10;1.00;;;;;;5120072;28;20441;-60
2023/05/29 10:40:12;;;;;;;7.53;4.73;;;22.60;1.00;;;;;;5120788;28;20451;-66
2023/05/29 10:42:45;;;;;;;7.57;4.67;;;22.40;1.00;;;;;;5099187;28;20461;-60
2023/05/29 10:45:54;;;;;;;9.67;5.17;;;21.30;1.00;;;;;;5105138;28;20440;-63
2023/05/29 10:48:50;;;;;;;7.90;4.63;;;21.00;1.00;;;;;;5121855;28;20521;-59
2023/05/29 10:51:28;;;;;;;10.27;4.83;;;20.40;1.00;;;;;;5037985;28;20486;-63
2023/05/29 10:53:55;;;;;;;8.47;4.63;;;21.20;1.00;;;;;;5054585;28;20561;-60
2023/05/29 10:56:26;;;;;;;10.13;5.03;;;21.10;1.00;;;;;;5119339;28;20785;-60
2023/05/29 10:59:00;;;;;;;7.63;4.70;;;22.00;1.00;;;;;;5120150;28;20497;-60
2023/05/29 11:01:29;;;;;;;8.70;4.83;;;22.50;1.00;;;;;;5120963;28;20486;-60
2023/05/29 11:04:27;;;;;;;10.60;5.73;;;23.50;1.00;;;;;;5123039;28;20491;-61
2023/05/29 11:06:55;;;;;;;9.37;4.50;;;23.50;1.00;;;;;;5123008;28;20864;-61
2023/05/29 11:09:29;;;;;;;7.67;4.80;;;22.90;1.00;;;;;;5121379;28;20506;-60
2023/05/29 11:12:33;;;;;;;7.77;4.50;;;23.00;1.00;;;;;;5119760;28;20813;-60
2023/05/29 11:15:06;;;;;;;10.10;5.03;;;23.70;1.00;;;;;;5116855;28;20467;-61
2023/05/29 11:17:43;;;;;;;7.30;4.57;;;24.10;1.00;;;;;;5120141;28;20463;-60
2023/05/29 11:20:23;;;;;;;8.87;4.53;;;24.30;1.00;;;;;;5120378;28;20483;-60
2023/05/29 11:23:02;;;;;;;6.53;4.90;;;24.30;1.00;;;;;;5119183;28;20489;-62
2023/05/29 11:25:29;;;;;;;8.67;4.73;;;24.50;1.00;;;;;;5122054;28;20542;-61
2023/05/29 11:27:57;;;;;;;8.23;5.30;;;24.50;1.00;;;;;;5123204;28;20586;-60
2023/05/29 11:30:26;;;;;;;8.40;5.20;;;24.90;1.00;;;;;;5121781;28;20460;-61
2023/05/29 11:32:54;;;;;;;8.03;4.43;;;23.70;1.00;;;;;;5119881;28;20468;-61
2023/05/29 11:35:23;;;;;;;7.23;4.30;;;23.30;1.00;;;;;;5120031;28;20633;-61
2023/05/29 11:37:50;;;;;;;8.37;4.93;;;22.80;1.00;;;;;;5119658;28;20460;-62
2023/05/29 11:40:18;;;;;;;7.57;4.50;;;23.50;1.00;;;;;;5121085;28;20512;-61
2023/05/29 11:42:48;;;;;;;10.50;5.00;;;23.10;1.00;;;;;;5120059;28;20465;-62
2023/05/29 11:45:16;;;;;;;10.40;5.10;;;22.50;1.00;;;;;;5120797;28;20566;-63
2023/05/29 11:47:56;;;;;;;8.60;4.70;;;21.60;1.00;;;;;;5122185;28;20558;-61
2023/05/29 11:50:24;;;;;;;8.27;4.93;;;21.80;1.00;;;;;;5123771;27;20504;-60
2023/05/29 11:52:52;;;;;;;7.80;4.40;;;22.40;1.00;;;;;;5124052;28;20470;-62
2023/05/29 11:55:20;;;;;;;9.43;4.90;;;23.40;1.00;;;;;;5123007;28;20458;-61
2023/05/29 11:57:47;;;;;;;11.27;5.17;;;23.50;1.00;;;;;;5122390;28;20452;-62
2023/05/29 12:00:16;;;;;;;6.80;4.93;;;23.70;1.00;;;;;;5109138;28;20871;-61
2023/05/29 12:02:46;;;;;;;13.50;5.53;;;23.40;1.00;;;;;;5098887;28;20841;-62
2023/05/29 12:05:18;;;;;;;8.37;5.13;;;23.10;1.00;;;;;;5100783;28;20461;-60
2023/05/29 12:07:50;;;;;;;9.90;4.90;;;23.60;1.00;;;;;;5103008;28;20567;-62
2023/05/29 12:10:18;;;;;;;7.27;4.97;;;24.00;1.00;;;;;;5103022;28;20464;-61
2023/05/29 12:12:49;;;;;;;9.07;4.57;;;24.00;1.00;;;;;;5102537;28;20464;-61
2023/05/29 12:15:17;;;;;;;7.60;4.60;;;24.10;1.00;;;;;;5102640;28;20460;-60
2023/05/29 12:17:45;;;;;;;9.07;4.70;;;24.10;1.00;;;;;;5103386;28;20472;-62
2023/05/29 12:20:15;;;;;;;9.30;4.70;;;24.00;1.00;;;;;;5102471;28;20805;-61
2023/05/29 12:22:43;;;;;;;8.40;5.10;;;23.70;1.00;;;;;;5102340;28;20855;-62
2023/05/29 12:25:12;;;;;;;8.30;5.20;;;23.60;1.00;;;;;;5101809;28;20460;-60
2023/05/29 12:27:42;;;;;;;8.07;5.30;;;24.40;1.00;;;;;;5101558;28;20476;-60
2023/05/29 12:30:11;;;;;;;8.97;5.30;;;23.90;1.00;;;;;;5116526;28;20459;-61
2023/05/29 12:32:40;;;;;;;7.73;5.57;;;22.90;1.00;;;;;;5118208;28;20885;-61
2023/05/29 12:35:19;;;;;;;7.93;4.70;;;23.20;1.00;;;;;;5118721;28;20455;-58
2023/05/29 12:37:47;;;;;;;9.27;5.03;;;23.50;1.00;;;;;;5108458;28;20464;-59
2023/05/29 12:40:19;;;;;;;6.23;4.50;;;24.20;1.00;;;;;;5101539;28;20488;-62
2023/05/29 12:42:48;;;;;;;13.20;4.83;;;24.30;1.00;;;;;;5129661;27;20506;-61
2023/05/29 12:45:18;;;;;;;8.10;4.70;;;24.80;1.00;;;;;;5144716;27;20540;-61
2023/05/29 12:47:53;;;;;;;6.67;5.03;;;24.50;1.00;;;;;;5143625;27;20484;-61
2023/05/29 12:50:30;;;;;;;6.70;4.50;;;24.50;1.00;;;;;;5143365;27;20507;-62
2023/05/29 12:53:01;;;;;;;8.60;4.83;;;24.50;1.00;;;;;;5141469;27;20465;-62
2023/05/29 12:55:30;;;;;;;7.70;4.83;;;24.80;1.00;;;;;;5140481;27;20481;-61
2023/05/29 12:57:57;;;;;;;13.50;5.27;;;24.80;1.00;;;;;;5139924;27;20786;-61